createdAt,value
2023-03-04T00:02:06.558Z,0.69
2023-03-04T00:05:09.962Z,0.68
2023-03-04T00:08:12.697Z,0.66
2023-03-04T00:11:15.466Z,0.62
2023-03-04T00:14:18.186Z,0.55
2023-03-04T00:17:22.427Z,0.53
2023-03-04T00:20:25.309Z,0.56
2023-03-04T00:23:27.983Z,0.54
2023-03-04T00:26:30.676Z,0.52
2023-03-04T00:29:33.453Z,0.52
2023-03-04T00:32:37.822Z,0.48
2023-03-04T00:35:42.050Z,0.45
2023-03-04T00:38:44.804Z,0.41
2023-03-04T00:41:47.506Z,0.42
2023-03-04T00:44:51.416Z,0.38
2023-03-04T00:47:55.494Z,0.36
2023-03-04T00:50:58.214Z,0.32
2023-03-04T00:54:01.147Z,0.30
2023-03-04T00:57:03.982Z,0.28
2023-03-04T01:00:07.985Z,0.23
2023-03-04T01:03:12.103Z,0.23
2023-03-04T01:06:15.576Z,0.20
2023-03-04T01:09:18.330Z,0.18
2023-03-04T01:12:20.998Z,0.18
2023-03-04T01:15:24.146Z,0.15
2023-03-04T01:18:28.373Z,0.20
2023-03-04T01:21:31.211Z,0.25
2023-03-04T01:24:33.924Z,0.40
2023-03-04T01:27:36.784Z,0.60
2023-03-04T01:30:39.637Z,0.68
2023-03-04T01:33:43.772Z,0.79
2023-03-04T01:36:46.439Z,0.93
2023-03-04T01:39:49.177Z,1.07
2023-03-04T01:42:52.081Z,1.19
2023-03-04T01:45:56.654Z,1.27
2023-03-04T01:49:01.877Z,1.33
2023-03-04T01:52:05.898Z,1.31
2023-03-04T01:55:16.574Z,1.45
2023-03-04T01:58:19.271Z,1.41
2023-03-04T02:01:21.981Z,1.46
2023-03-04T02:04:28.284Z,1.43
2023-03-04T02:07:31.477Z,1.44
2023-03-04T02:10:35.036Z,1.40
2023-03-04T02:13:37.913Z,1.36
2023-03-04T02:16:41.002Z,1.37
2023-03-04T02:19:52.208Z,1.40
2023-03-04T02:23:02.712Z,1.45
2023-03-04T02:26:18.733Z,1.46
2023-03-04T02:29:21.654Z,1.56
2023-03-04T02:32:24.436Z,1.62
2023-03-04T02:35:27.342Z,1.62
2023-03-04T02:38:30.149Z,1.69
2023-03-04T02:41:34.827Z,1.71
2023-03-04T02:44:39.288Z,1.77
2023-03-04T02:47:42.080Z,1.81
2023-03-04T02:50:48.046Z,1.84
2023-03-04T02:53:50.755Z,1.87
2023-03-04T02:56:56.442Z,1.86
2023-03-04T02:59:59.127Z,1.97
2023-03-04T03:03:02.131Z,2.02
2023-03-04T03:06:05.359Z,2.06
2023-03-04T03:09:08.839Z,2.09
2023-03-04T03:12:12.862Z,2.10
2023-03-04T03:15:16.035Z,2.10
2023-03-04T03:18:18.732Z,2.11
2023-03-04T03:21:21.427Z,2.10
2023-03-04T03:24:24.149Z,2.06
2023-03-04T03:27:28.133Z,2.04
2023-03-04T03:30:31.292Z,2.07
2023-03-04T03:33:34.625Z,2.10
2023-03-04T03:36:37.369Z,2.11
2023-03-04T03:39:40.223Z,2.11
2023-03-04T03:42:44.391Z,2.15
2023-03-04T03:45:47.249Z,2.14
2023-03-04T03:48:49.983Z,2.12
2023-03-04T03:51:52.763Z,2.14
2023-03-04T03:54:55.460Z,2.15
2023-03-04T03:57:59.525Z,2.16
2023-03-04T04:01:02.204Z,2.19
2023-03-04T04:04:05.096Z,2.19
2023-03-04T04:07:07.789Z,2.23
2023-03-04T04:10:12.213Z,2.23
2023-03-04T04:13:16.220Z,2.23
2023-03-04T04:16:18.936Z,2.23
2023-03-04T04:19:22.304Z,2.27
2023-03-04T04:22:25.166Z,2.27
2023-03-04T04:25:27.946Z,2.28
2023-03-04T04:28:31.999Z,2.25
2023-03-04T04:31:35.451Z,2.26
2023-03-04T04:34:38.183Z,2.25
2023-03-04T04:37:40.861Z,2.27
2023-03-04T04:40:43.964Z,2.25
2023-03-04T04:43:48.362Z,2.22
2023-03-04T04:46:51.077Z,2.26
2023-03-04T04:49:54.120Z,2.26
2023-03-04T04:52:57.098Z,2.24
2023-03-04T04:55:59.803Z,2.24
2023-03-04T04:59:07.666Z,2.17
2023-03-04T05:02:10.714Z,2.22
2023-03-04T05:05:13.468Z,2.19
2023-03-04T05:08:16.144Z,2.16
2023-03-04T05:11:19.792Z,2.17
2023-03-04T05:14:23.894Z,2.18
2023-03-04T05:17:26.690Z,2.15
2023-03-04T05:20:29.389Z,2.16
2023-03-04T05:23:34.528Z,2.17
2023-03-04T05:26:37.375Z,2.19
2023-03-04T05:29:42.740Z,2.17
2023-03-04T05:32:45.450Z,2.19
2023-03-04T05:35:48.765Z,2.19
2023-03-04T05:38:51.736Z,2.17
2023-03-04T05:41:54.411Z,2.18
2023-03-04T05:44:58.413Z,2.21
2023-03-04T05:48:02.425Z,1.94
2023-03-04T05:51:05.501Z,2.27
2023-03-04T05:54:08.414Z,2.28
2023-03-04T05:57:11.108Z,2.30
2023-03-04T06:00:17.429Z,2.31
2023-03-04T06:03:23.054Z,2.29
2023-03-04T06:06:25.774Z,2.31
2023-03-04T06:09:28.788Z,2.29
2023-03-04T06:12:31.450Z,2.19
2023-03-04T06:15:35.711Z,2.32
2023-03-04T06:18:38.377Z,2.31
2023-03-04T06:21:41.181Z,2.30
2023-03-04T06:24:43.879Z,2.36
2023-03-04T06:27:46.620Z,2.37
2023-03-04T06:30:53.278Z,2.36
2023-03-04T06:33:55.989Z,2.39
2023-03-04T06:36:58.655Z,2.42
2023-03-04T06:40:01.948Z,2.38
2023-03-04T06:43:04.646Z,2.41
2023-03-04T06:46:09.934Z,2.46
2023-03-04T06:49:12.644Z,2.52
2023-03-04T06:52:15.353Z,2.53
2023-03-04T06:55:18.217Z,2.54
2023-03-04T06:58:20.908Z,2.60
2023-03-04T07:01:26.731Z,2.64
2023-03-04T07:04:29.538Z,2.63
2023-03-04T07:07:32.236Z,2.65
2023-03-04T07:10:35.230Z,2.75
2023-03-04T07:13:38.496Z,2.74
2023-03-04T07:16:42.593Z,2.78
2023-03-04T07:19:46.160Z,2.80
2023-03-04T07:22:48.851Z,2.87
2023-03-04T07:25:52.144Z,2.88
2023-03-04T07:28:57.255Z,2.92
2023-03-04T07:32:01.469Z,2.98
2023-03-04T07:35:04.658Z,3.03
2023-03-04T07:38:07.548Z,3.06
2023-03-04T07:41:10.243Z,3.08
2023-03-04T07:44:13.579Z,3.16
2023-03-04T07:47:17.645Z,3.19
2023-03-04T07:50:20.586Z,3.24
2023-03-04T07:53:23.303Z,3.30
2023-03-04T07:56:28.168Z,3.35
2023-03-04T07:59:30.952Z,3.39
2023-03-04T08:02:35.098Z,3.44
2023-03-04T08:05:40.327Z,3.42
2023-03-04T08:08:44.005Z,3.50
2023-03-04T08:11:46.762Z,3.55
2023-03-04T08:14:49.688Z,3.66
2023-03-04T08:17:53.773Z,3.69
2023-03-04T08:20:56.838Z,3.74
2023-03-04T08:24:02.521Z,3.79
2023-03-04T08:27:05.848Z,3.89
2023-03-04T08:30:10.023Z,4.08
2023-03-04T08:33:14.077Z,4.30
2023-03-04T08:36:17.031Z,4.44
2023-03-04T08:39:20.480Z,4.57
2023-03-04T08:42:24.158Z,4.69
2023-03-04T08:45:26.857Z,4.75
2023-03-04T08:48:30.965Z,4.79
2023-03-04T08:51:35.864Z,4.83
2023-03-04T08:54:38.546Z,4.87
2023-03-04T08:57:41.619Z,4.98
2023-03-04T09:00:48.338Z,5.02
2023-03-04T09:03:52.705Z,5.11
2023-03-04T09:06:55.484Z,5.19
2023-03-04T09:09:58.274Z,5.18
2023-03-04T09:13:01.756Z,5.12
2023-03-04T09:16:05.013Z,5.14
2023-03-04T09:19:09.044Z,5.18
2023-03-04T09:22:11.809Z,5.22
2023-03-04T09:25:16.209Z,5.25
2023-03-04T09:28:20.101Z,5.25
2023-03-04T09:31:23.722Z,5.37
2023-03-04T09:34:27.810Z,5.44
2023-03-04T09:37:30.620Z,5.52
2023-03-04T09:40:38.848Z,5.57
2023-03-04T09:43:45.444Z,5.59
2023-03-04T09:46:49.601Z,5.68
2023-03-04T09:49:58.364Z,5.76
2023-03-04T09:53:10.417Z,5.84
2023-03-04T09:56:14.978Z,5.99
2023-03-04T09:59:26.184Z,6.07
2023-03-04T10:02:40.874Z,6.18
2023-03-04T10:05:52.168Z,6.24
2023-03-04T10:09:00.733Z,6.33
2023-03-04T10:12:07.490Z,6.42
2023-03-04T10:15:24.321Z,6.53
2023-03-04T10:18:33.670Z,6.62
2023-03-04T10:21:42.667Z,6.75
2023-03-04T10:24:47.633Z,6.88
2023-03-04T10:27:52.829Z,6.99
2023-03-04T10:31:00.766Z,7.00
2023-03-04T10:34:04.924Z,7.10
2023-03-04T10:37:10.082Z,7.20
2023-03-04T10:40:20.819Z,7.19
2023-03-04T10:43:23.476Z,7.36
2023-03-04T10:46:26.676Z,7.44
2023-03-04T10:49:31.137Z,7.50
2023-03-04T10:52:39.597Z,7.52
2023-03-04T10:55:46.530Z,7.54
2023-03-04T10:58:49.316Z,7.63
2023-03-04T11:01:54.712Z,7.61
2023-03-04T11:05:07.493Z,7.61
2023-03-04T11:08:18.865Z,7.59
2023-03-04T11:11:29.913Z,7.67
2023-03-04T11:14:39.321Z,7.66
2023-03-04T11:17:46.410Z,7.69
2023-03-04T11:20:51.810Z,7.69
2023-03-04T11:23:59.915Z,7.68
2023-03-04T11:27:07.419Z,7.71
2023-03-04T11:30:30.212Z,7.64
2023-03-04T11:33:43.068Z,7.59
2023-03-04T11:36:55.468Z,7.28
2023-03-04T11:40:03.619Z,7.39
2023-03-04T11:43:13.559Z,7.31
2023-03-04T11:46:41.238Z,7.31
2023-03-04T11:50:01.989Z,7.29
2023-03-04T11:53:32.487Z,7.31
2023-03-04T11:56:43.296Z,7.21
2023-03-04T12:00:04.977Z,7.19
2023-03-04T12:03:28.217Z,7.22
2023-03-04T12:06:41.320Z,7.20
2023-03-04T12:09:57.193Z,7.25
2023-03-04T12:13:41.125Z,7.25
2023-03-04T12:17:03.169Z,7.12
2023-03-04T12:20:42.239Z,7.14
2023-03-04T12:24:29.564Z,7.18
2023-03-04T12:27:40.941Z,7.15
2023-03-04T12:30:56.214Z,7.11
2023-03-04T12:34:20.586Z,7.07
2023-03-04T12:37:39.839Z,7.02
2023-03-04T12:40:51.398Z,6.99
2023-03-04T12:44:00.828Z,7.00
2023-03-04T12:47:20.037Z,6.85
2023-03-04T12:50:38.400Z,6.83
2023-03-04T12:53:47.922Z,6.90
2023-03-04T12:56:54.717Z,6.92
2023-03-04T13:00:07.392Z,6.91
2023-03-04T13:03:20.031Z,6.99
2023-03-04T13:06:35.429Z,7.01
2023-03-04T13:09:47.725Z,7.00
2023-03-04T13:12:52.237Z,7.07
2023-03-04T13:16:04.821Z,7.14
2023-03-04T13:19:40.734Z,7.19
2023-03-04T13:22:47.942Z,7.26
2023-03-04T13:26:09.386Z,7.39
2023-03-04T13:29:34.449Z,7.28
2023-03-04T13:32:39.476Z,7.28
2023-03-04T13:35:49.164Z,7.25
2023-03-04T13:39:01.951Z,7.27
2023-03-04T13:42:26.105Z,7.25
2023-03-04T13:45:35.370Z,7.38
2023-03-04T13:48:38.650Z,7.49
2023-03-04T13:51:45.496Z,7.69
2023-03-04T13:54:49.562Z,7.64
2023-03-04T13:57:52.605Z,7.66
2023-03-04T14:00:57.097Z,7.83
2023-03-04T14:04:00.382Z,7.98
2023-03-04T14:07:05.375Z,8.09
2023-03-04T14:10:23.195Z,8.07
2023-03-04T14:13:27.664Z,8.15
2023-03-04T14:16:35.965Z,8.18
2023-03-04T14:19:44.815Z,8.24
2023-03-04T14:22:47.531Z,8.24
2023-03-04T14:25:51.598Z,8.26
2023-03-04T14:28:57.347Z,8.31
2023-03-04T14:32:02.224Z,8.25
2023-03-04T14:35:08.542Z,8.25
2023-03-04T14:38:21.982Z,8.14
2023-03-04T14:41:30.902Z,8.14
2023-03-04T14:44:37.940Z,8.18
2023-03-04T14:47:45.325Z,8.23
2023-03-04T14:50:51.453Z,8.20
2023-03-04T14:53:56.095Z,8.13
2023-03-04T14:57:23.839Z,8.18
2023-03-04T15:00:30.214Z,7.99
2023-03-04T15:03:33.761Z,7.96
2023-03-04T15:06:39.714Z,7.90
2023-03-04T15:09:42.625Z,7.70
2023-03-04T15:12:53.077Z,7.76
2023-03-04T15:16:02.245Z,7.77
2023-03-04T15:19:07.440Z,7.78
2023-03-04T15:22:10.637Z,7.74
2023-03-04T15:25:15.237Z,7.73
2023-03-04T15:28:20.229Z,7.71
2023-03-04T15:31:25.834Z,7.65
2023-03-04T15:34:28.563Z,7.61
2023-03-04T15:37:31.389Z,7.60
2023-03-04T15:40:38.370Z,7.51
2023-03-04T15:43:42.546Z,7.48
2023-03-04T15:46:45.500Z,7.49
2023-03-04T15:49:48.177Z,7.50
2023-03-04T15:52:51.578Z,7.51
2023-03-04T15:55:55.007Z,7.57
2023-03-04T15:59:02.203Z,7.44
2023-03-04T16:02:12.537Z,7.34
2023-03-04T16:05:16.145Z,7.32
2023-03-04T16:08:21.898Z,7.36
2023-03-04T16:11:27.968Z,7.16
2023-03-04T16:14:32.560Z,7.10
2023-03-04T16:17:35.317Z,7.07
2023-03-04T16:20:39.208Z,7.03
2023-03-04T16:23:44.246Z,6.96
2023-03-04T16:26:47.744Z,6.96
2023-03-04T16:29:51.759Z,6.93
2023-03-04T16:32:56.382Z,6.93
2023-03-04T16:36:04.621Z,6.94
2023-03-04T16:39:15.296Z,6.94
2023-03-04T16:42:19.349Z,6.89
2023-03-04T16:45:26.248Z,6.92
2023-03-04T16:48:29.126Z,6.87
2023-03-04T16:51:37.114Z,6.84
2023-03-04T16:54:40.326Z,6.85
2023-03-04T16:57:43.129Z,6.80
2023-03-04T17:00:47.208Z,6.76
2023-03-04T17:03:49.918Z,6.78
2023-03-04T17:06:52.609Z,6.76
2023-03-04T17:09:55.273Z,6.75
2023-03-04T17:12:58.070Z,6.55
2023-03-04T17:16:03.370Z,6.71
2023-03-04T17:19:06.171Z,6.66
2023-03-04T17:22:08.855Z,6.65
2023-03-04T17:25:12.608Z,6.63
2023-03-04T17:28:15.276Z,6.61
2023-03-04T17:31:21.246Z,6.61
2023-03-04T17:34:23.927Z,6.62
2023-03-04T17:37:26.769Z,6.61
2023-03-04T17:40:29.789Z,6.62
2023-03-04T17:43:32.487Z,6.62
2023-03-04T17:46:36.624Z,6.59
2023-03-04T17:49:39.320Z,6.59
2023-03-04T17:52:42.037Z,6.60
2023-03-04T17:55:50.178Z,6.60
2023-03-04T17:58:52.957Z,6.59
2023-03-04T18:01:57.208Z,6.59
2023-03-04T18:05:00.613Z,6.58
2023-03-04T18:08:04.550Z,6.57
2023-03-04T18:11:07.478Z,6.57
2023-03-04T18:14:12.659Z,6.46
2023-03-04T18:17:17.607Z,6.58
2023-03-04T18:20:20.542Z,6.56
2023-03-04T18:23:23.435Z,6.56
2023-03-04T18:26:26.877Z,6.45
2023-03-04T18:29:29.666Z,6.57
2023-03-04T18:32:49.467Z,6.57
2023-03-04T18:35:59.635Z,6.58
2023-03-04T18:39:04.603Z,6.57
2023-03-04T18:42:07.326Z,6.58
2023-03-04T18:45:11.586Z,6.42
2023-03-04T18:48:15.625Z,6.59
2023-03-04T18:51:18.335Z,6.60
2023-03-04T18:54:21.112Z,6.62
2023-03-04T18:57:23.917Z,6.63
2023-03-04T19:00:26.862Z,6.62
2023-03-04T19:03:32.057Z,6.60
2023-03-04T19:06:35.391Z,6.40
2023-03-04T19:09:38.046Z,6.57
2023-03-04T19:12:40.744Z,6.59
2023-03-04T19:15:43.403Z,6.59
2023-03-04T19:18:47.536Z,6.59
2023-03-04T19:21:50.409Z,6.63
2023-03-04T19:24:53.357Z,6.66
2023-03-04T19:27:56.462Z,6.62
2023-03-04T19:30:59.508Z,6.55
2023-03-04T19:34:03.663Z,6.56
2023-03-04T19:37:06.305Z,6.57
2023-03-04T19:40:10.657Z,6.61
2023-03-04T19:43:13.938Z,6.61
2023-03-04T19:46:16.689Z,6.60
2023-03-04T19:49:20.901Z,6.62
2023-03-04T19:52:23.555Z,6.70
2023-03-04T19:55:26.291Z,6.30
2023-03-04T19:58:29.018Z,6.61
2023-03-04T20:01:33.650Z,6.57
2023-03-04T20:04:38.022Z,6.57
2023-03-04T20:07:40.861Z,6.57
2023-03-04T20:10:43.702Z,6.60
2023-03-04T20:13:46.422Z,6.63
2023-03-04T20:16:49.798Z,6.65
2023-03-04T20:19:53.826Z,6.65
2023-03-04T20:22:56.523Z,6.66
2023-03-04T20:25:59.333Z,6.71
2023-03-04T20:29:02.174Z,6.63
2023-03-04T20:32:05.473Z,6.68
2023-03-04T20:35:14.129Z,6.71
2023-03-04T20:38:16.807Z,6.72
2023-03-04T20:41:19.729Z,6.63
2023-03-04T20:44:22.427Z,6.58
2023-03-04T20:47:25.109Z,6.48
2023-03-04T20:50:29.332Z,6.50
2023-03-04T20:53:32.067Z,6.49
2023-03-04T20:56:35.818Z,6.51
2023-03-04T20:59:39.501Z,6.56
2023-03-04T21:02:42.311Z,6.59
2023-03-04T21:05:46.334Z,6.61
2023-03-04T21:08:49.003Z,6.55
2023-03-04T21:11:51.856Z,6.54
2023-03-04T21:14:54.608Z,6.55
2023-03-04T21:17:57.761Z,6.57
2023-03-04T21:21:01.745Z,6.54
2023-03-04T21:24:04.995Z,6.53
2023-03-04T21:27:17.990Z,6.54
2023-03-04T21:30:20.776Z,6.58
2023-03-04T21:33:31.127Z,6.57
2023-03-04T21:36:35.258Z,6.61
2023-03-04T21:39:38.053Z,6.58
2023-03-04T21:42:42.195Z,6.59
2023-03-04T21:45:54.908Z,6.60
2023-03-04T21:48:57.639Z,6.61
2023-03-04T21:52:03.474Z,6.64
2023-03-04T21:55:09.156Z,6.64
2023-03-04T21:58:11.893Z,6.65
2023-03-04T22:01:16.948Z,6.66
2023-03-04T22:04:19.777Z,6.65
2023-03-04T22:07:23.861Z,6.65
2023-03-04T22:10:26.728Z,6.64
2023-03-04T22:13:29.377Z,6.64
2023-03-04T22:16:37.471Z,6.53
2023-03-04T22:19:42.591Z,6.67
2023-03-04T22:22:46.698Z,6.65
2023-03-04T22:25:49.438Z,6.65
2023-03-04T22:28:52.219Z,6.67
2023-03-04T22:31:58.322Z,6.56
2023-03-04T22:35:02.143Z,6.69
2023-03-04T22:38:09.257Z,6.77
2023-03-04T22:41:16.293Z,6.63
2023-03-04T22:44:19.169Z,6.61
2023-03-04T22:47:22.529Z,6.60
2023-03-04T22:50:27.963Z,6.60
2023-03-04T22:53:32.188Z,6.60
2023-03-04T22:56:36.535Z,6.65
2023-03-04T22:59:40.295Z,6.65
2023-03-04T23:02:43.832Z,6.58
2023-03-04T23:05:46.634Z,6.60
2023-03-04T23:08:51.269Z,6.56
2023-03-04T23:11:54.873Z,6.55
2023-03-04T23:14:58.856Z,6.50
2023-03-04T23:18:01.622Z,6.44
2023-03-04T23:21:06.638Z,6.47
2023-03-04T23:24:14.677Z,6.42
2023-03-04T23:27:18.283Z,6.45
2023-03-04T23:30:30.640Z,6.44
2023-03-04T23:33:35.808Z,6.48
2023-03-04T23:36:38.638Z,6.51
2023-03-04T23:39:42.738Z,6.52
2023-03-04T23:42:45.425Z,6.54
2023-03-04T23:45:48.181Z,6.52
2023-03-04T23:48:51.345Z,6.51
2023-03-04T23:51:54.007Z,6.50
2023-03-04T23:54:58.679Z,6.50
2023-03-04T23:58:04.711Z,6.50
